createdAt,value
2023-03-04T00:00:33.805Z,42.38
2023-03-04T00:03:00.242Z,38.35
2023-03-04T00:05:26.643Z,30.35
2023-03-04T00:07:53.011Z,33.17
2023-03-04T00:10:19.490Z,35.08
2023-03-04T00:12:45.851Z,39.22
2023-03-04T00:15:12.225Z,39.25
2023-03-04T00:17:38.633Z,34.03
2023-03-04T00:20:05.449Z,33.53
2023-03-04T00:22:31.798Z,34.00
2023-03-04T00:24:58.186Z,33.40
2023-03-04T00:27:24.560Z,30.52
2023-03-04T00:29:50.994Z,33.17
2023-03-04T00:32:18.263Z,33.70
2023-03-04T00:34:44.615Z,33.85
2023-03-04T00:37:11.123Z,32.55
2023-03-04T00:39:37.468Z,31.92
2023-03-04T00:42:04.011Z,32.47
2023-03-04T00:44:30.444Z,33.17
2023-03-04T00:46:56.824Z,34.55
2023-03-04T00:49:23.250Z,33.35
2023-03-04T00:51:49.605Z,37.63
2023-03-04T00:54:15.945Z,36.58
2023-03-04T00:56:42.301Z,42.58
2023-03-04T00:59:08.657Z,34.60
2023-03-04T01:01:35.074Z,33.58
2023-03-04T01:04:01.501Z,33.75
2023-03-04T01:06:28.004Z,32.25
2023-03-04T01:08:54.346Z,33.90
2023-03-04T01:11:20.729Z,31.70
2023-03-04T01:13:47.240Z,31.10
2023-03-04T01:16:13.708Z,31.00
2023-03-04T01:18:40.336Z,32.92
2023-03-04T01:21:07.047Z,30.42
2023-03-04T01:23:33.399Z,29.65
2023-03-04T01:25:59.853Z,36.30
2023-03-04T01:28:26.203Z,27.70
2023-03-04T01:30:52.584Z,29.33
2023-03-04T01:33:18.967Z,29.65
2023-03-04T01:35:45.368Z,25.83
2023-03-04T01:38:12.638Z,34.05
2023-03-04T01:40:39.071Z,28.17
2023-03-04T01:43:05.950Z,28.27
2023-03-04T01:45:35.704Z,27.80
2023-03-04T01:48:02.211Z,26.67
2023-03-04T01:50:32.885Z,23.83
2023-03-04T01:52:59.554Z,26.88
2023-03-04T01:55:26.083Z,31.17
2023-03-04T01:57:53.106Z,25.38
2023-03-04T02:00:22.934Z,25.70
2023-03-04T02:03:02.397Z,21.85
2023-03-04T02:05:29.914Z,27.38
2023-03-04T02:07:58.579Z,26.60
2023-03-04T02:10:25.308Z,27.02
2023-03-04T02:12:52.675Z,25.80
2023-03-04T02:15:19.142Z,27.63
2023-03-04T02:17:45.773Z,27.70
2023-03-04T02:20:30.517Z,26.10
2023-03-04T02:23:17.777Z,25.80
2023-03-04T02:26:07.941Z,25.10
2023-03-04T02:28:34.320Z,25.13
2023-03-04T02:31:00.805Z,22.40
2023-03-04T02:33:27.354Z,26.40
2023-03-04T02:35:53.752Z,24.75
2023-03-04T02:38:20.125Z,26.27
2023-03-04T02:40:49.606Z,26.45
2023-03-04T02:43:16.431Z,26.55
2023-03-04T02:45:50.410Z,25.15
2023-03-04T02:48:20.800Z,26.67
2023-03-04T02:50:49.965Z,27.67
2023-03-04T02:53:17.723Z,24.77
2023-03-04T02:55:44.749Z,25.50
2023-03-04T02:58:11.993Z,28.00
2023-03-04T03:00:38.551Z,22.45
2023-03-04T03:03:05.686Z,25.40
2023-03-04T03:05:34.405Z,27.10
2023-03-04T03:08:01.145Z,25.05
2023-03-04T03:10:27.940Z,28.80
2023-03-04T03:12:54.317Z,28.00
2023-03-04T03:15:20.840Z,26.02
2023-03-04T03:17:47.641Z,24.48
2023-03-04T03:20:14.681Z,26.75
2023-03-04T03:22:42.136Z,24.48
2023-03-04T03:25:10.232Z,25.23
2023-03-04T03:27:36.609Z,27.42
2023-03-04T03:30:04.031Z,24.77
2023-03-04T03:32:30.543Z,24.60
2023-03-04T03:34:56.955Z,25.70
2023-03-04T03:37:23.453Z,27.10
2023-03-04T03:39:49.816Z,26.33
2023-03-04T03:42:16.179Z,26.77
2023-03-04T03:44:42.650Z,23.92
2023-03-04T03:47:09.006Z,26.63
2023-03-04T03:49:35.374Z,26.55
2023-03-04T03:52:01.742Z,27.40
2023-03-04T03:54:28.100Z,22.13
2023-03-04T03:56:54.487Z,31.73
2023-03-04T03:59:20.839Z,26.27
2023-03-04T04:01:47.204Z,23.95
2023-03-04T04:04:13.987Z,24.20
2023-03-04T04:06:40.357Z,24.92
2023-03-04T04:09:06.828Z,26.48
2023-03-04T04:11:33.259Z,28.02
2023-03-04T04:13:59.614Z,23.95
2023-03-04T04:16:26.080Z,25.33
2023-03-04T04:18:52.441Z,24.73
2023-03-04T04:21:18.793Z,24.27
2023-03-04T04:23:45.151Z,26.85
2023-03-04T04:26:11.577Z,23.10
2023-03-04T04:28:37.925Z,24.15
2023-03-04T04:31:08.075Z,25.40
2023-03-04T04:33:34.990Z,22.73
2023-03-04T04:36:01.626Z,25.42
2023-03-04T04:38:28.004Z,22.77
2023-03-04T04:40:57.064Z,23.05
2023-03-04T04:43:23.450Z,28.15
2023-03-04T04:45:49.922Z,26.92
2023-03-04T04:48:16.273Z,26.05
2023-03-04T04:50:42.624Z,25.95
2023-03-04T04:53:11.986Z,23.92
2023-03-04T04:55:38.409Z,23.85
2023-03-04T04:58:07.109Z,25.45
2023-03-04T05:00:33.535Z,22.88
2023-03-04T05:02:59.950Z,26.05
2023-03-04T05:05:26.404Z,30.05
2023-03-04T05:07:52.803Z,25.38
2023-03-04T05:10:19.223Z,24.02
2023-03-04T05:12:45.676Z,25.23
2023-03-04T05:15:12.147Z,24.05
2023-03-04T05:17:38.493Z,25.35
2023-03-04T05:20:07.097Z,19.85
2023-03-04T05:22:33.462Z,23.60
2023-03-04T05:25:00.159Z,24.88
2023-03-04T05:27:26.540Z,26.85
2023-03-04T05:29:54.023Z,21.02
2023-03-04T05:32:20.438Z,23.80
2023-03-04T05:34:46.828Z,26.92
2023-03-04T05:37:13.196Z,24.27
2023-03-04T05:39:39.538Z,23.88
2023-03-04T05:42:05.896Z,35.72
2023-03-04T05:44:32.265Z,25.42
2023-03-04T05:46:58.628Z,25.77
2023-03-04T05:49:24.986Z,20.83
2023-03-04T05:51:52.511Z,23.73
2023-03-04T05:54:18.890Z,23.42
2023-03-04T05:56:45.436Z,24.75
2023-03-04T05:59:11.861Z,25.25
2023-03-04T06:01:38.423Z,23.00
2023-03-04T06:04:04.953Z,24.48
2023-03-04T06:06:31.375Z,23.00
2023-03-04T06:08:57.775Z,25.48
2023-03-04T06:11:24.156Z,26.38
2023-03-04T06:13:50.584Z,23.23
2023-03-04T06:16:17.076Z,25.70
2023-03-04T06:18:43.471Z,24.73
2023-03-04T06:21:09.845Z,24.63
2023-03-04T06:23:36.197Z,24.27
2023-03-04T06:26:03.014Z,24.90
2023-03-04T06:28:29.964Z,23.52
2023-03-04T06:30:57.472Z,25.38
2023-03-04T06:33:24.193Z,25.23
2023-03-04T06:35:55.350Z,22.13
2023-03-04T06:38:21.865Z,25.02
2023-03-04T06:40:48.356Z,22.60
2023-03-04T06:43:14.738Z,26.17
2023-03-04T06:45:41.081Z,22.50
2023-03-04T06:48:07.431Z,24.95
2023-03-04T06:50:33.992Z,25.45
2023-03-04T06:53:00.407Z,23.80
2023-03-04T06:55:26.945Z,21.88
2023-03-04T06:57:53.273Z,25.55
2023-03-04T07:00:19.872Z,20.33
2023-03-04T07:02:46.360Z,28.15
2023-03-04T07:05:12.721Z,26.02
2023-03-04T07:07:39.126Z,22.77
2023-03-04T07:10:05.868Z,22.40
2023-03-04T07:12:32.316Z,21.85
2023-03-04T07:14:58.706Z,27.83
2023-03-04T07:17:25.077Z,26.70
2023-03-04T07:19:51.443Z,27.98
2023-03-04T07:22:17.839Z,24.27
2023-03-04T07:24:44.397Z,24.70
2023-03-04T07:27:10.746Z,27.25
2023-03-04T07:29:37.124Z,27.15
2023-03-04T07:32:07.656Z,28.40
2023-03-04T07:34:34.178Z,29.90
2023-03-04T07:37:00.549Z,28.98
2023-03-04T07:39:26.920Z,27.00
2023-03-04T07:41:53.265Z,22.80
2023-03-04T07:44:19.651Z,26.70
2023-03-04T07:46:46.034Z,23.33
2023-03-04T07:49:13.783Z,25.48
2023-03-04T07:51:40.639Z,22.42
2023-03-04T07:54:06.993Z,24.33
2023-03-04T07:56:34.305Z,23.45
2023-03-04T07:59:01.185Z,22.75
2023-03-04T08:01:36.060Z,24.25
2023-03-04T08:04:04.634Z,23.02
2023-03-04T08:06:31.516Z,24.08
2023-03-04T08:09:00.562Z,23.70
2023-03-04T08:11:28.065Z,26.48
2023-03-04T08:13:54.620Z,25.40
2023-03-04T08:16:22.587Z,25.90
2023-03-04T08:18:51.715Z,21.00
2023-03-04T08:21:19.879Z,22.38
2023-03-04T08:23:46.842Z,21.40
2023-03-04T08:26:17.193Z,22.98
2023-03-04T08:28:45.667Z,16.17
2023-03-04T08:31:14.303Z,19.77
2023-03-04T08:33:41.283Z,22.60
2023-03-04T08:36:08.476Z,21.17
2023-03-04T08:38:34.996Z,22.33
2023-03-04T08:41:01.417Z,25.05
2023-03-04T08:43:27.783Z,22.45
2023-03-04T08:45:54.808Z,21.65
2023-03-04T08:48:22.399Z,27.83
2023-03-04T08:50:50.222Z,24.25
2023-03-04T08:53:17.723Z,22.45
2023-03-04T08:55:44.710Z,24.38
2023-03-04T08:58:11.853Z,21.88
2023-03-04T09:00:43.023Z,18.58
2023-03-04T09:03:13.947Z,24.77
2023-03-04T09:05:41.124Z,23.38
2023-03-04T09:08:08.078Z,23.05
2023-03-04T09:10:34.440Z,19.15
2023-03-04T09:13:01.711Z,23.52
2023-03-04T09:15:28.571Z,23.00
2023-03-04T09:17:54.933Z,25.02
2023-03-04T09:20:23.076Z,21.00
2023-03-04T09:22:49.508Z,23.00
2023-03-04T09:25:15.893Z,21.92
2023-03-04T09:27:42.315Z,23.40
2023-03-04T09:30:09.247Z,18.98
2023-03-04T09:32:35.715Z,17.77
2023-03-04T09:35:02.245Z,21.10
2023-03-04T09:37:28.638Z,21.10
2023-03-04T09:39:54.994Z,26.63
2023-03-04T09:42:27.042Z,21.73
2023-03-04T09:44:54.727Z,20.92
2023-03-04T09:47:23.585Z,22.23
2023-03-04T09:49:57.698Z,16.35
2023-03-04T09:53:04.896Z,21.77
2023-03-04T09:55:35.851Z,17.38
2023-03-04T09:58:11.778Z,12.80
2023-03-04T10:00:43.064Z,17.77
2023-03-04T10:03:17.747Z,17.02
2023-03-04T10:06:07.497Z,18.73
2023-03-04T10:09:07.025Z,16.30
2023-03-04T10:11:42.476Z,16.30
2023-03-04T10:14:26.928Z,20.77
2023-03-04T10:16:59.101Z,18.50
2023-03-04T10:19:31.203Z,16.02
2023-03-04T10:21:58.216Z,18.95
2023-03-04T10:24:28.713Z,16.52
2023-03-04T10:27:02.292Z,15.75
2023-03-04T10:29:31.943Z,15.27
2023-03-04T10:31:58.561Z,15.35
2023-03-04T10:34:25.138Z,18.08
2023-03-04T10:37:07.509Z,14.95
2023-03-04T10:39:40.127Z,13.75
2023-03-04T10:42:24.041Z,18.67
2023-03-04T10:44:56.679Z,13.48
2023-03-04T10:47:25.394Z,15.13
2023-03-04T10:50:00.494Z,16.98
2023-03-04T10:52:40.368Z,16.88
2023-03-04T10:55:16.376Z,15.60
2023-03-04T11:00:31.789Z,16.90
2023-03-04T11:03:23.715Z,13.55
2023-03-04T11:05:53.507Z,19.30
2023-03-04T11:10:50.048Z,13.30
2023-03-04T11:13:25.200Z,17.52
2023-03-04T11:16:01.217Z,20.27
2023-03-04T11:21:20.569Z,12.48
2023-03-04T11:23:54.832Z,13.23
2023-03-04T11:26:36.251Z,13.55
2023-03-04T11:29:33.446Z,11.50
2023-03-04T11:32:12.105Z,11.32
2023-03-04T11:34:52.862Z,11.50
2023-03-04T11:37:31.637Z,11.82
2023-03-04T11:40:11.128Z,14.98
2023-03-04T11:42:42.238Z,12.32
2023-03-04T11:45:28.788Z,13.98
2023-03-04T11:48:33.446Z,13.80
2023-03-04T11:51:14.617Z,14.85
2023-03-04T11:54:11.497Z,10.55
2023-03-04T11:56:43.589Z,13.50
2023-03-04T11:59:40.622Z,11.63
2023-03-04T12:02:28.943Z,10.63
2023-03-04T12:07:52.251Z,14.10
2023-03-04T12:10:24.711Z,10.07
2023-03-04T12:13:18.626Z,12.10
2023-03-04T12:16:16.342Z,9.65
2023-03-04T12:18:48.632Z,9.07
2023-03-04T12:21:28.725Z,10.88
2023-03-04T12:24:22.555Z,10.43
2023-03-04T12:26:56.833Z,13.13
2023-03-04T12:29:41.334Z,12.55
2023-03-04T12:32:35.287Z,9.40
2023-03-04T12:35:24.308Z,11.30
2023-03-04T12:38:18.385Z,6.85
2023-03-04T12:41:14.389Z,10.60
2023-03-04T12:44:02.433Z,10.18
2023-03-04T12:46:51.937Z,10.40
2023-03-04T12:49:52.183Z,10.27
2023-03-04T12:52:33.718Z,8.80
2023-03-04T12:55:04.597Z,19.13
2023-03-04T12:57:31.977Z,13.93
2023-03-04T13:00:29.456Z,11.18
2023-03-04T13:03:08.964Z,14.32
2023-03-04T13:05:54.952Z,9.13
2023-03-04T13:08:56.091Z,9.20
2023-03-04T13:11:29.029Z,9.77
2023-03-04T13:14:09.360Z,9.80
2023-03-04T13:16:43.825Z,8.80
2023-03-04T13:19:49.329Z,8.85
2023-03-04T13:22:42.008Z,11.25
2023-03-04T13:25:31.995Z,10.45
2023-03-04T13:28:07.263Z,9.43
2023-03-04T13:30:34.303Z,9.70
2023-03-04T13:33:09.624Z,10.13
2023-03-04T13:35:54.264Z,10.13
2023-03-04T13:38:26.852Z,7.05
2023-03-04T13:41:15.201Z,9.77
2023-03-04T13:46:18.020Z,7.07
2023-03-04T13:48:50.610Z,6.25
2023-03-04T13:51:29.218Z,7.55
2023-03-04T13:53:59.296Z,6.78
2023-03-04T13:56:48.501Z,6.72
2023-03-04T13:59:26.041Z,9.27
2023-03-04T14:01:56.913Z,6.68
2023-03-04T14:04:29.686Z,7.00
2023-03-04T14:06:58.756Z,7.43
2023-03-04T14:09:28.778Z,6.22
2023-03-04T14:11:58.632Z,6.80
2023-03-04T14:14:42.552Z,7.43
2023-03-04T14:17:20.049Z,7.88
2023-03-04T14:19:49.681Z,7.70
2023-03-04T14:22:22.053Z,8.57
2023-03-04T14:25:04.463Z,8.43
2023-03-04T14:27:35.292Z,7.03
2023-03-04T14:30:31.919Z,6.57
2023-03-04T14:33:08.340Z,5.82
2023-03-04T14:35:36.165Z,7.28
2023-03-04T14:38:15.828Z,7.53
2023-03-04T14:40:46.604Z,4.63
2023-03-04T14:43:19.103Z,7.43
2023-03-04T14:45:49.430Z,4.85
2023-03-04T14:48:23.377Z,8.40
2023-03-04T14:50:54.460Z,6.72
2023-03-04T14:53:23.480Z,5.70
2023-03-04T14:56:00.221Z,10.65
2023-03-04T14:58:29.365Z,9.77
2023-03-04T15:01:18.611Z,6.40
2023-03-04T15:03:55.755Z,7.78
2023-03-04T15:06:24.947Z,8.00
2023-03-04T15:09:04.939Z,6.90
2023-03-04T15:11:33.517Z,6.75
2023-03-04T15:14:00.946Z,8.00
2023-03-04T15:16:48.827Z,10.02
2023-03-04T15:19:28.707Z,6.80
2023-03-04T15:22:07.010Z,3.85
2023-03-04T15:24:33.548Z,6.07
2023-03-04T15:26:59.942Z,9.77
2023-03-04T15:29:26.565Z,5.68
2023-03-04T15:31:52.954Z,6.25
2023-03-04T15:34:20.398Z,7.55
2023-03-04T15:36:50.169Z,6.53
2023-03-04T15:41:46.480Z,5.15
2023-03-04T15:44:13.247Z,10.68
2023-03-04T15:46:39.594Z,7.22
2023-03-04T15:49:05.967Z,6.45
2023-03-04T15:51:32.372Z,7.65
2023-03-04T15:54:00.412Z,9.15
2023-03-04T15:56:29.767Z,6.25
2023-03-04T15:58:58.724Z,13.48
2023-03-04T16:01:25.579Z,11.10
2023-03-04T16:03:53.818Z,9.50
2023-03-04T16:06:24.392Z,10.27
2023-03-04T16:08:52.129Z,12.95
2023-03-04T16:11:24.006Z,6.00
2023-03-04T16:13:50.346Z,9.18
2023-03-04T16:16:16.956Z,6.75
2023-03-04T16:18:43.568Z,8.23
2023-03-04T16:21:15.548Z,10.38
2023-03-04T16:23:45.604Z,10.50
2023-03-04T16:26:15.027Z,6.60
2023-03-04T16:28:42.219Z,7.25
2023-03-04T16:31:11.690Z,5.70
2023-03-04T16:33:38.217Z,9.75
2023-03-04T16:36:20.888Z,6.20
2023-03-04T16:38:47.575Z,8.02
2023-03-04T16:41:15.953Z,7.00
2023-03-04T16:43:43.264Z,8.90
2023-03-04T16:46:13.634Z,8.85
2023-03-04T16:48:40.383Z,9.98
2023-03-04T16:51:19.407Z,10.52
2023-03-04T16:53:49.892Z,9.40
2023-03-04T16:56:17.323Z,11.18
2023-03-04T16:58:44.788Z,9.25
2023-03-04T17:01:17.565Z,7.63
2023-03-04T17:03:44.212Z,9.50
2023-03-04T17:06:11.667Z,11.02
2023-03-04T17:08:38.100Z,8.88
2023-03-04T17:11:04.805Z,6.85
2023-03-04T17:13:31.168Z,10.60
2023-03-04T17:16:02.677Z,6.47
2023-03-04T17:18:29.358Z,9.65
2023-03-04T17:21:03.586Z,10.25
2023-03-04T17:23:29.952Z,8.55
2023-03-04T17:25:57.592Z,8.98
2023-03-04T17:28:24.501Z,8.15
2023-03-04T17:30:50.919Z,8.68
2023-03-04T17:33:17.287Z,8.70
2023-03-04T17:35:44.625Z,8.32
2023-03-04T17:38:11.013Z,8.98
2023-03-04T17:40:37.397Z,9.98
2023-03-04T17:43:07.858Z,8.80
2023-03-04T17:45:34.212Z,8.07
2023-03-04T17:48:00.580Z,8.13
2023-03-04T17:50:27.060Z,10.05
2023-03-04T17:52:53.450Z,9.15
2023-03-04T17:55:19.829Z,7.47
2023-03-04T17:57:46.177Z,6.15
2023-03-04T18:00:13.122Z,8.73
2023-03-04T18:02:39.871Z,4.70
2023-03-04T18:05:07.398Z,8.70
2023-03-04T18:07:33.817Z,5.30
2023-03-04T18:10:00.343Z,10.00
2023-03-04T18:12:26.763Z,10.32
2023-03-04T18:14:53.130Z,19.65
2023-03-04T18:17:19.563Z,6.30
2023-03-04T18:19:46.058Z,8.55
2023-03-04T18:22:13.208Z,8.23
2023-03-04T18:24:41.123Z,6.35
2023-03-04T18:27:07.561Z,8.10
2023-03-04T18:29:34.202Z,7.65
2023-03-04T18:32:00.768Z,7.05
2023-03-04T18:34:27.267Z,7.75
2023-03-04T18:36:53.757Z,6.07
2023-03-04T18:39:20.105Z,7.80
2023-03-04T18:41:46.589Z,7.95
2023-03-04T18:44:12.937Z,7.82
2023-03-04T18:46:44.091Z,6.03
2023-03-04T18:49:13.693Z,8.63
2023-03-04T18:51:40.175Z,8.85
2023-03-04T18:54:06.721Z,8.68
2023-03-04T18:56:39.999Z,8.45
2023-03-04T18:59:12.353Z,7.22
2023-03-04T19:01:38.936Z,7.55
2023-03-04T19:04:06.001Z,10.77
2023-03-04T19:06:33.817Z,8.40
2023-03-04T19:09:00.675Z,11.07
2023-03-04T19:11:27.873Z,8.68
2023-03-04T19:13:54.523Z,8.93
2023-03-04T19:16:21.030Z,9.75
2023-03-04T19:18:47.471Z,8.48
2023-03-04T19:21:13.888Z,9.90
2023-03-04T19:23:40.784Z,9.65
2023-03-04T19:26:08.092Z,10.55
2023-03-04T19:28:35.470Z,7.15
2023-03-04T19:31:06.369Z,7.80
2023-03-04T19:33:39.081Z,7.30
2023-03-04T19:36:07.009Z,8.68
2023-03-04T19:38:33.936Z,6.35
2023-03-04T19:41:08.248Z,8.13
2023-03-04T19:43:36.891Z,9.30
2023-03-04T19:46:03.456Z,9.90
2023-03-04T19:48:29.875Z,9.18
2023-03-04T19:50:56.269Z,11.93
2023-03-04T19:53:22.700Z,7.80
2023-03-04T19:55:49.374Z,8.88
2023-03-04T19:58:16.516Z,10.10
2023-03-04T20:00:42.960Z,11.10
2023-03-04T20:03:09.500Z,12.07
2023-03-04T20:05:36.473Z,11.73
2023-03-04T20:08:03.511Z,8.85
2023-03-04T20:10:36.604Z,12.75
2023-03-04T20:13:04.375Z,12.20
2023-03-04T20:15:30.904Z,13.20
2023-03-04T20:17:57.351Z,8.90
2023-03-04T20:20:28.513Z,10.50
2023-03-04T20:22:55.881Z,10.48
2023-03-04T20:25:23.115Z,12.13
2023-03-04T20:27:49.481Z,11.77
2023-03-04T20:30:16.096Z,12.52
2023-03-04T20:32:42.493Z,10.00
2023-03-04T20:35:13.930Z,10.15
2023-03-04T20:37:41.543Z,12.20
2023-03-04T20:40:09.510Z,11.93
2023-03-04T20:42:35.917Z,8.00
2023-03-04T20:45:02.425Z,13.57
2023-03-04T20:47:29.227Z,13.82
2023-03-04T20:49:55.570Z,9.43
2023-03-04T20:52:21.989Z,14.73
2023-03-04T20:54:48.507Z,14.70
2023-03-04T20:57:15.467Z,12.65
2023-03-04T20:59:41.976Z,12.60
2023-03-04T21:02:13.492Z,8.23
2023-03-04T21:04:39.856Z,12.57
2023-03-04T21:07:06.222Z,13.70
2023-03-04T21:09:32.586Z,11.38
2023-03-04T21:12:00.820Z,16.95
2023-03-04T21:14:31.968Z,10.95
2023-03-04T21:17:01.648Z,12.63
2023-03-04T21:19:34.070Z,11.27
2023-03-04T21:22:01.371Z,10.90
2023-03-04T21:24:33.209Z,14.82
2023-03-04T21:27:01.417Z,11.18
2023-03-04T21:29:28.157Z,12.38
2023-03-04T21:32:20.749Z,11.27
2023-03-04T21:34:51.739Z,12.25
2023-03-04T21:37:19.636Z,8.77
2023-03-04T21:42:17.334Z,7.78
2023-03-04T21:44:51.800Z,13.38
2023-03-04T21:47:19.778Z,6.47
2023-03-04T21:49:46.283Z,8.85
2023-03-04T21:52:13.125Z,13.15
2023-03-04T21:54:39.627Z,11.57
2023-03-04T21:57:06.065Z,5.82
2023-03-04T21:59:32.722Z,10.90
2023-03-04T22:01:59.137Z,8.85
2023-03-04T22:04:25.550Z,11.30
2023-03-04T22:06:51.959Z,10.45
2023-03-04T22:09:18.363Z,11.95
2023-03-04T22:11:44.797Z,12.68
2023-03-04T22:14:11.482Z,12.68
2023-03-04T22:16:48.880Z,15.85
2023-03-04T22:19:19.348Z,13.25
2023-03-04T22:21:45.696Z,7.10
2023-03-04T22:24:12.062Z,11.60
2023-03-04T22:26:38.482Z,12.07
2023-03-04T22:29:05.530Z,13.60
2023-03-04T22:31:34.260Z,11.45
2023-03-04T22:34:09.153Z,9.68
2023-03-04T22:36:37.689Z,11.70
2023-03-04T22:39:07.316Z,9.60
2023-03-04T22:41:34.038Z,10.20
2023-03-04T22:44:01.014Z,9.40
2023-03-04T22:46:30.097Z,10.40
2023-03-04T22:48:59.088Z,6.82
2023-03-04T22:51:26.397Z,11.02
2023-03-04T22:53:53.058Z,8.90
2023-03-04T22:56:19.758Z,8.73
2023-03-04T22:58:47.019Z,6.57
2023-03-04T23:01:15.614Z,11.35
2023-03-04T23:03:43.890Z,10.27
2023-03-04T23:06:19.782Z,11.95
2023-03-04T23:08:47.965Z,11.73
2023-03-04T23:11:29.993Z,10.20
2023-03-04T23:13:57.390Z,8.48
2023-03-04T23:16:24.883Z,6.53
2023-03-04T23:18:51.930Z,9.32
2023-03-04T23:21:23.822Z,8.43
2023-03-04T23:23:51.721Z,9.02
2023-03-04T23:26:21.415Z,7.47
2023-03-04T23:28:48.139Z,10.63
2023-03-04T23:31:14.872Z,11.45
2023-03-04T23:33:45.668Z,7.35
2023-03-04T23:36:15.256Z,10.00
2023-03-04T23:38:43.488Z,10.65
2023-03-04T23:41:21.950Z,7.88
2023-03-04T23:43:51.148Z,8.93
2023-03-04T23:46:17.839Z,9.43
2023-03-04T23:48:48.099Z,9.68
2023-03-04T23:51:17.722Z,7.40
2023-03-04T23:53:44.709Z,9.00
2023-03-04T23:56:13.998Z,10.63
2023-03-04T23:58:42.253Z,5.07
